sensor_id;sensor_type;location;lat;lon;timestamp;P1;durP1;ratioP1;P2;durP2;ratioP2
75035;SDS011;64247;51.540;5.854;2023-06-26T00:01:02;14.52;;;12.00;;
75035;SDS011;64247;51.540;5.854;2023-06-26T00:03:03;15.88;;;11.95;;
75035;SDS011;64247;51.540;5.854;2023-06-26T00:05:04;16.80;;;14.07;;
75035;SDS011;64247;51.540;5.854;2023-06-26T00:07:05;15.15;;;12.65;;
75035;SDS011;64247;51.540;5.854;2023-06-26T00:09:06;15.02;;;12.90;;
75035;SDS011;64247;51.540;5.854;2023-06-26T00:11:08;14.90;;;11.30;;
75035;SDS011;64247;51.540;5.854;2023-06-26T00:13:09;14.68;;;11.80;;
75035;SDS011;64247;51.540;5.854;2023-06-26T00:15:12;14.70;;;12.25;;
75035;SDS011;64247;51.540;5.854;2023-06-26T00:17:13;17.10;;;12.00;;
75035;SDS011;64247;51.540;5.854;2023-06-26T00:19:15;19.80;;;13.00;;
75035;SDS011;64247;51.540;5.854;2023-06-26T00:21:16;18.48;;;14.25;;
75035;SDS011;64247;51.540;5.854;2023-06-26T00:23:17;14.18;;;12.18;;
75035;SDS011;64247;51.540;5.854;2023-06-26T00:25:18;18.55;;;13.65;;
75035;SDS011;64247;51.540;5.854;2023-06-26T00:27:20;16.65;;;12.75;;
75035;SDS011;64247;51.540;5.854;2023-06-26T00:29:21;15.48;;;12.50;;
75035;SDS011;64247;51.540;5.854;2023-06-26T00:31:22;17.88;;;12.65;;
75035;SDS011;64247;51.540;5.854;2023-06-26T00:33:22;14.65;;;13.00;;
75035;SDS011;64247;51.540;5.854;2023-06-26T00:35:24;18.50;;;12.68;;
75035;SDS011;64247;51.540;5.854;2023-06-26T00:37:25;14.25;;;12.75;;
75035;SDS011;64247;51.540;5.854;2023-06-26T00:39:26;15.52;;;13.20;;
75035;SDS011;64247;51.540;5.854;2023-06-26T00:41:27;16.10;;;13.55;;
75035;SDS011;64247;51.540;5.854;2023-06-26T00:43:28;16.75;;;12.65;;
75035;SDS011;64247;51.540;5.854;2023-06-26T00:45:29;15.00;;;13.15;;
75035;SDS011;64247;51.540;5.854;2023-06-26T00:47:30;24.45;;;14.10;;
75035;SDS011;64247;51.540;5.854;2023-06-26T00:49:31;15.10;;;12.48;;
75035;SDS011;64247;51.540;5.854;2023-06-26T00:51:33;12.60;;;11.30;;
75035;SDS011;64247;51.540;5.854;2023-06-26T00:53:34;13.35;;;11.07;;
75035;SDS011;64247;51.540;5.854;2023-06-26T00:55:35;14.32;;;10.77;;
75035;SDS011;64247;51.540;5.854;2023-06-26T00:57:36;13.50;;;11.10;;
75035;SDS011;64247;51.540;5.854;2023-06-26T00:59:38;12.32;;;10.80;;
75035;SDS011;64247;51.540;5.854;2023-06-26T01:01:39;11.90;;;10.70;;
75035;SDS011;64247;51.540;5.854;2023-06-26T01:03:40;14.15;;;10.00;;
75035;SDS011;64247;51.540;5.854;2023-06-26T01:05:41;12.73;;;11.43;;
75035;SDS011;64247;51.540;5.854;2023-06-26T01:07:45;12.25;;;10.35;;
75035;SDS011;64247;51.540;5.854;2023-06-26T01:09:49;11.65;;;10.13;;
75035;SDS011;64247;51.540;5.854;2023-06-26T01:11:50;11.07;;;9.93;;
75035;SDS011;64247;51.540;5.854;2023-06-26T01:13:51;11.75;;;10.52;;
75035;SDS011;64247;51.540;5.854;2023-06-26T01:15:54;10.98;;;9.48;;
75035;SDS011;64247;51.540;5.854;2023-06-26T01:17:57;11.85;;;10.05;;
75035;SDS011;64247;51.540;5.854;2023-06-26T01:20:01;14.05;;;10.43;;
75035;SDS011;64247;51.540;5.854;2023-06-26T01:28:12;10.18;;;8.90;;
75035;SDS011;64247;51.540;5.854;2023-06-26T01:30:17;13.43;;;9.48;;
75035;SDS011;64247;51.540;5.854;2023-06-26T01:32:20;10.40;;;9.05;;
75035;SDS011;64247;51.540;5.854;2023-06-26T01:34:23;10.73;;;9.50;;
75035;SDS011;64247;51.540;5.854;2023-06-26T01:36:24;9.60;;;8.27;;
75035;SDS011;64247;51.540;5.854;2023-06-26T01:38:27;11.25;;;10.05;;
75035;SDS011;64247;51.540;5.854;2023-06-26T01:40:31;12.15;;;9.77;;
75035;SDS011;64247;51.540;5.854;2023-06-26T01:42:35;11.68;;;9.27;;
75035;SDS011;64247;51.540;5.854;2023-06-26T01:44:37;11.05;;;9.63;;
75035;SDS011;64247;51.540;5.854;2023-06-26T01:52:25;8.10;;;7.30;;
75035;SDS011;64247;51.540;5.854;2023-06-26T01:57:38;6.13;;;5.53;;
75035;SDS011;64247;51.540;5.854;2023-06-26T01:59:40;7.68;;;6.30;;
75035;SDS011;64247;51.540;5.854;2023-06-26T02:01:43;7.15;;;5.25;;
75035;SDS011;64247;51.540;5.854;2023-06-26T02:03:44;5.38;;;4.45;;
75035;SDS011;64247;51.540;5.854;2023-06-26T02:05:45;9.50;;;5.53;;
75035;SDS011;64247;51.540;5.854;2023-06-26T02:07:46;5.90;;;4.38;;
75035;SDS011;64247;51.540;5.854;2023-06-26T02:09:47;7.72;;;4.85;;
75035;SDS011;64247;51.540;5.854;2023-06-26T02:11:48;8.05;;;5.78;;
75035;SDS011;64247;51.540;5.854;2023-06-26T02:13:49;6.72;;;4.40;;
75035;SDS011;64247;51.540;5.854;2023-06-26T02:15:50;3.95;;;3.65;;
75035;SDS011;64247;51.540;5.854;2023-06-26T02:17:51;5.95;;;4.38;;
75035;SDS011;64247;51.540;5.854;2023-06-26T02:19:52;5.28;;;4.60;;
75035;SDS011;64247;51.540;5.854;2023-06-26T02:21:55;5.82;;;4.13;;
75035;SDS011;64247;51.540;5.854;2023-06-26T02:23:58;7.28;;;4.40;;
75035;SDS011;64247;51.540;5.854;2023-06-26T02:25:59;5.47;;;4.00;;
75035;SDS011;64247;51.540;5.854;2023-06-26T02:28:01;4.90;;;3.75;;
75035;SDS011;64247;51.540;5.854;2023-06-26T02:30:02;5.22;;;3.65;;
75035;SDS011;64247;51.540;5.854;2023-06-26T02:32:03;5.72;;;4.20;;
75035;SDS011;64247;51.540;5.854;2023-06-26T02:34:04;4.53;;;3.72;;
75035;SDS011;64247;51.540;5.854;2023-06-26T02:36:07;4.05;;;3.45;;
75035;SDS011;64247;51.540;5.854;2023-06-26T02:38:08;4.50;;;3.85;;
75035;SDS011;64247;51.540;5.854;2023-06-26T02:40:10;5.38;;;3.53;;
75035;SDS011;64247;51.540;5.854;2023-06-26T02:42:12;6.30;;;4.13;;
75035;SDS011;64247;51.540;5.854;2023-06-26T02:44:13;7.47;;;5.05;;
75035;SDS011;64247;51.540;5.854;2023-06-26T02:46:14;6.25;;;4.63;;
75035;SDS011;64247;51.540;5.854;2023-06-26T02:48:15;7.13;;;4.82;;
75035;SDS011;64247;51.540;5.854;2023-06-26T02:50:17;6.70;;;4.25;;
75035;SDS011;64247;51.540;5.854;2023-06-26T02:52:38;6.20;;;4.60;;
75035;SDS011;64247;51.540;5.854;2023-06-26T02:54:39;7.60;;;4.63;;
75035;SDS011;64247;51.540;5.854;2023-06-26T02:56:40;6.80;;;4.65;;
75035;SDS011;64247;51.540;5.854;2023-06-26T02:58:41;7.95;;;5.10;;
75035;SDS011;64247;51.540;5.854;2023-06-26T03:00:42;5.22;;;4.63;;
75035;SDS011;64247;51.540;5.854;2023-06-26T03:02:48;7.13;;;4.65;;
75035;SDS011;64247;51.540;5.854;2023-06-26T03:04:52;5.15;;;4.47;;
75035;SDS011;64247;51.540;5.854;2023-06-26T03:06:53;8.23;;;5.10;;
75035;SDS011;64247;51.540;5.854;2023-06-26T03:08:54;5.57;;;4.10;;
75035;SDS011;64247;51.540;5.854;2023-06-26T03:10:55;7.95;;;4.22;;
75035;SDS011;64247;51.540;5.854;2023-06-26T03:12:56;9.13;;;4.88;;
75035;SDS011;64247;51.540;5.854;2023-06-26T03:14:57;5.72;;;4.90;;
75035;SDS011;64247;51.540;5.854;2023-06-26T03:16:58;5.40;;;3.72;;
75035;SDS011;64247;51.540;5.854;2023-06-26T03:19:03;6.10;;;4.30;;
75035;SDS011;64247;51.540;5.854;2023-06-26T03:21:08;7.05;;;4.85;;
75035;SDS011;64247;51.540;5.854;2023-06-26T03:23:09;6.88;;;3.92;;
75035;SDS011;64247;51.540;5.854;2023-06-26T03:25:11;5.55;;;3.97;;
75035;SDS011;64247;51.540;5.854;2023-06-26T03:27:11;5.45;;;3.85;;
75035;SDS011;64247;51.540;5.854;2023-06-26T03:29:13;9.55;;;4.95;;
75035;SDS011;64247;51.540;5.854;2023-06-26T03:31:14;4.72;;;3.92;;
75035;SDS011;64247;51.540;5.854;2023-06-26T03:33:15;8.00;;;4.20;;
75035;SDS011;64247;51.540;5.854;2023-06-26T03:35:17;5.97;;;3.90;;
75035;SDS011;64247;51.540;5.854;2023-06-26T03:37:18;7.22;;;3.78;;
75035;SDS011;64247;51.540;5.854;2023-06-26T03:39:19;5.82;;;4.32;;
75035;SDS011;64247;51.540;5.854;2023-06-26T03:41:21;9.32;;;4.07;;
75035;SDS011;64247;51.540;5.854;2023-06-26T03:43:22;8.05;;;3.80;;
75035;SDS011;64247;51.540;5.854;2023-06-26T03:45:41;6.10;;;3.22;;
75035;SDS011;64247;51.540;5.854;2023-06-26T03:47:42;6.53;;;3.83;;
75035;SDS011;64247;51.540;5.854;2023-06-26T03:49:43;10.35;;;4.93;;
75035;SDS011;64247;51.540;5.854;2023-06-26T03:51:44;6.70;;;4.15;;
75035;SDS011;64247;51.540;5.854;2023-06-26T03:53:45;5.55;;;3.78;;
75035;SDS011;64247;51.540;5.854;2023-06-26T03:55:46;5.28;;;3.28;;
75035;SDS011;64247;51.540;5.854;2023-06-26T03:57:47;5.55;;;3.08;;
75035;SDS011;64247;51.540;5.854;2023-06-26T03:59:49;8.35;;;3.83;;
75035;SDS011;64247;51.540;5.854;2023-06-26T04:01:50;5.38;;;3.08;;
75035;SDS011;64247;51.540;5.854;2023-06-26T04:03:51;6.53;;;4.03;;
75035;SDS011;64247;51.540;5.854;2023-06-26T04:05:52;8.60;;;4.10;;
75035;SDS011;64247;51.540;5.854;2023-06-26T04:07:53;4.82;;;3.47;;
75035;SDS011;64247;51.540;5.854;2023-06-26T04:09:54;7.45;;;4.70;;
75035;SDS011;64247;51.540;5.854;2023-06-26T04:11:55;7.20;;;3.40;;
75035;SDS011;64247;51.540;5.854;2023-06-26T04:13:56;6.47;;;3.88;;
75035;SDS011;64247;51.540;5.854;2023-06-26T04:15:57;8.00;;;3.30;;
75035;SDS011;64247;51.540;5.854;2023-06-26T04:17:58;8.30;;;3.55;;
75035;SDS011;64247;51.540;5.854;2023-06-26T04:19:59;7.72;;;4.00;;
75035;SDS011;64247;51.540;5.854;2023-06-26T04:22:00;12.35;;;4.15;;
75035;SDS011;64247;51.540;5.854;2023-06-26T04:24:01;9.32;;;3.67;;
75035;SDS011;64247;51.540;5.854;2023-06-26T04:26:02;5.72;;;3.20;;
75035;SDS011;64247;51.540;5.854;2023-06-26T04:28:05;5.80;;;3.67;;
75035;SDS011;64247;51.540;5.854;2023-06-26T04:30:06;8.77;;;3.38;;
75035;SDS011;64247;51.540;5.854;2023-06-26T04:32:08;7.32;;;3.17;;
75035;SDS011;64247;51.540;5.854;2023-06-26T04:34:09;2.80;;;2.58;;
75035;SDS011;64247;51.540;5.854;2023-06-26T04:36:10;5.85;;;3.47;;
75035;SDS011;64247;51.540;5.854;2023-06-26T04:38:11;8.48;;;3.28;;
75035;SDS011;64247;51.540;5.854;2023-06-26T04:40:12;6.32;;;3.38;;
75035;SDS011;64247;51.540;5.854;2023-06-26T04:42:13;5.13;;;3.05;;
75035;SDS011;64247;51.540;5.854;2023-06-26T04:44:15;6.22;;;2.65;;
75035;SDS011;64247;51.540;5.854;2023-06-26T04:46:15;5.25;;;2.95;;
75035;SDS011;64247;51.540;5.854;2023-06-26T04:48:17;7.97;;;4.30;;
75035;SDS011;64247;51.540;5.854;2023-06-26T04:50:18;5.95;;;2.83;;
75035;SDS011;64247;51.540;5.854;2023-06-26T04:52:19;8.18;;;3.58;;
75035;SDS011;64247;51.540;5.854;2023-06-26T04:54:20;6.60;;;3.10;;
75035;SDS011;64247;51.540;5.854;2023-06-26T04:56:20;10.52;;;3.95;;
75035;SDS011;64247;51.540;5.854;2023-06-26T04:58:21;7.72;;;3.67;;
75035;SDS011;64247;51.540;5.854;2023-06-26T05:00:22;4.35;;;3.25;;
75035;SDS011;64247;51.540;5.854;2023-06-26T05:02:25;13.13;;;4.50;;
75035;SDS011;64247;51.540;5.854;2023-06-26T05:04:27;6.22;;;3.20;;
75035;SDS011;64247;51.540;5.854;2023-06-26T05:06:27;12.13;;;5.32;;
75035;SDS011;64247;51.540;5.854;2023-06-26T05:08:28;9.18;;;3.53;;
75035;SDS011;64247;51.540;5.854;2023-06-26T05:10:29;7.45;;;3.63;;
75035;SDS011;64247;51.540;5.854;2023-06-26T05:12:30;10.60;;;4.07;;
75035;SDS011;64247;51.540;5.854;2023-06-26T05:14:31;9.55;;;3.33;;
75035;SDS011;64247;51.540;5.854;2023-06-26T05:16:33;9.30;;;4.95;;
75035;SDS011;64247;51.540;5.854;2023-06-26T05:18:37;7.80;;;3.67;;
75035;SDS011;64247;51.540;5.854;2023-06-26T05:20:38;6.82;;;3.65;;
75035;SDS011;64247;51.540;5.854;2023-06-26T05:22:39;7.85;;;3.25;;
75035;SDS011;64247;51.540;5.854;2023-06-26T05:24:41;7.47;;;4.05;;
75035;SDS011;64247;51.540;5.854;2023-06-26T05:26:47;6.97;;;3.28;;
75035;SDS011;64247;51.540;5.854;2023-06-26T05:28:48;13.02;;;4.72;;
75035;SDS011;64247;51.540;5.854;2023-06-26T05:30:50;7.30;;;3.85;;
75035;SDS011;64247;51.540;5.854;2023-06-26T05:32:52;7.35;;;3.55;;
75035;SDS011;64247;51.540;5.854;2023-06-26T05:34:54;8.82;;;3.72;;
75035;SDS011;64247;51.540;5.854;2023-06-26T05:36:58;8.93;;;3.53;;
75035;SDS011;64247;51.540;5.854;2023-06-26T05:38:59;4.03;;;2.45;;
75035;SDS011;64247;51.540;5.854;2023-06-26T05:41:00;4.63;;;2.85;;
75035;SDS011;64247;51.540;5.854;2023-06-26T05:43:02;10.00;;;3.20;;
75035;SDS011;64247;51.540;5.854;2023-06-26T05:45:03;7.28;;;2.97;;
75035;SDS011;64247;51.540;5.854;2023-06-26T05:47:04;9.25;;;3.70;;
75035;SDS011;64247;51.540;5.854;2023-06-26T05:49:06;9.00;;;3.20;;
75035;SDS011;64247;51.540;5.854;2023-06-26T05:51:07;10.25;;;4.07;;
75035;SDS011;64247;51.540;5.854;2023-06-26T05:53:08;14.57;;;3.28;;
75035;SDS011;64247;51.540;5.854;2023-06-26T05:55:10;9.18;;;4.13;;
75035;SDS011;64247;51.540;5.854;2023-06-26T05:57:12;8.18;;;3.90;;
75035;SDS011;64247;51.540;5.854;2023-06-26T05:59:15;9.35;;;3.63;;
75035;SDS011;64247;51.540;5.854;2023-06-26T06:01:18;11.20;;;5.38;;
75035;SDS011;64247;51.540;5.854;2023-06-26T06:03:20;10.63;;;4.10;;
75035;SDS011;64247;51.540;5.854;2023-06-26T06:05:21;9.50;;;3.40;;
75035;SDS011;64247;51.540;5.854;2023-06-26T06:07:22;8.02;;;2.90;;
75035;SDS011;64247;51.540;5.854;2023-06-26T06:09:23;3.88;;;3.22;;
75035;SDS011;64247;51.540;5.854;2023-06-26T06:11:25;6.97;;;2.97;;
75035;SDS011;64247;51.540;5.854;2023-06-26T06:13:25;6.20;;;3.53;;
75035;SDS011;64247;51.540;5.854;2023-06-26T06:15:26;11.27;;;4.38;;
75035;SDS011;64247;51.540;5.854;2023-06-26T06:17:27;4.57;;;2.95;;
75035;SDS011;64247;51.540;5.854;2023-06-26T06:19:28;7.75;;;3.05;;
75035;SDS011;64247;51.540;5.854;2023-06-26T06:21:29;8.15;;;3.40;;
75035;SDS011;64247;51.540;5.854;2023-06-26T06:23:30;8.32;;;3.95;;
75035;SDS011;64247;51.540;5.854;2023-06-26T06:25:31;12.35;;;3.20;;
75035;SDS011;64247;51.540;5.854;2023-06-26T06:27:32;7.90;;;2.90;;
75035;SDS011;64247;51.540;5.854;2023-06-26T06:29:33;10.30;;;3.13;;
75035;SDS011;64247;51.540;5.854;2023-06-26T06:31:34;5.55;;;2.97;;
75035;SDS011;64247;51.540;5.854;2023-06-26T06:33:35;10.80;;;3.38;;
75035;SDS011;64247;51.540;5.854;2023-06-26T06:35:36;7.63;;;2.53;;
75035;SDS011;64247;51.540;5.854;2023-06-26T06:37:37;11.20;;;3.15;;
75035;SDS011;64247;51.540;5.854;2023-06-26T06:39:39;5.32;;;3.63;;
75035;SDS011;64247;51.540;5.854;2023-06-26T06:41:40;8.95;;;3.13;;
75035;SDS011;64247;51.540;5.854;2023-06-26T06:43:41;7.25;;;2.67;;
75035;SDS011;64247;51.540;5.854;2023-06-26T06:45:42;8.48;;;4.03;;
75035;SDS011;64247;51.540;5.854;2023-06-26T06:47:43;5.78;;;2.70;;
75035;SDS011;64247;51.540;5.854;2023-06-26T06:49:44;5.10;;;2.97;;
75035;SDS011;64247;51.540;5.854;2023-06-26T06:51:45;8.95;;;2.92;;
75035;SDS011;64247;51.540;5.854;2023-06-26T06:53:45;6.70;;;3.08;;
75035;SDS011;64247;51.540;5.854;2023-06-26T06:55:46;7.80;;;3.30;;
75035;SDS011;64247;51.540;5.854;2023-06-26T06:57:47;5.85;;;3.10;;
75035;SDS011;64247;51.540;5.854;2023-06-26T06:59:48;7.85;;;2.90;;
75035;SDS011;64247;51.540;5.854;2023-06-26T07:01:49;9.70;;;3.55;;
75035;SDS011;64247;51.540;5.854;2023-06-26T07:03:50;7.25;;;3.15;;
75035;SDS011;64247;51.540;5.854;2023-06-26T07:05:51;8.10;;;2.45;;
75035;SDS011;64247;51.540;5.854;2023-06-26T07:07:52;6.38;;;2.45;;
75035;SDS011;64247;51.540;5.854;2023-06-26T07:09:52;7.22;;;2.85;;
75035;SDS011;64247;51.540;5.854;2023-06-26T07:11:53;5.30;;;2.42;;
75035;SDS011;64247;51.540;5.854;2023-06-26T07:13:55;9.20;;;2.63;;
75035;SDS011;64247;51.540;5.854;2023-06-26T07:15:56;3.33;;;2.00;;
75035;SDS011;64247;51.540;5.854;2023-06-26T07:17:57;4.65;;;2.17;;
75035;SDS011;64247;51.540;5.854;2023-06-26T07:19:58;9.55;;;3.47;;
75035;SDS011;64247;51.540;5.854;2023-06-26T07:22:01;6.25;;;2.53;;
75035;SDS011;64247;51.540;5.854;2023-06-26T07:24:02;3.13;;;1.85;;
75035;SDS011;64247;51.540;5.854;2023-06-26T07:26:03;7.43;;;2.78;;
75035;SDS011;64247;51.540;5.854;2023-06-26T07:28:09;6.53;;;2.60;;
75035;SDS011;64247;51.540;5.854;2023-06-26T07:30:12;2.65;;;1.67;;
75035;SDS011;64247;51.540;5.854;2023-06-26T07:32:13;6.53;;;2.10;;
75035;SDS011;64247;51.540;5.854;2023-06-26T07:34:14;3.72;;;1.92;;
75035;SDS011;64247;51.540;5.854;2023-06-26T07:36:15;6.30;;;2.55;;
75035;SDS011;64247;51.540;5.854;2023-06-26T07:38:16;4.28;;;2.67;;
75035;SDS011;64247;51.540;5.854;2023-06-26T07:40:17;5.32;;;2.45;;
75035;SDS011;64247;51.540;5.854;2023-06-26T07:42:18;7.78;;;2.60;;
75035;SDS011;64247;51.540;5.854;2023-06-26T07:44:19;2.97;;;2.38;;
75035;SDS011;64247;51.540;5.854;2023-06-26T07:46:20;6.15;;;2.80;;
75035;SDS011;64247;51.540;5.854;2023-06-26T07:48:21;11.68;;;3.58;;
75035;SDS011;64247;51.540;5.854;2023-06-26T07:50:22;5.50;;;2.80;;
75035;SDS011;64247;51.540;5.854;2023-06-26T07:52:24;9.80;;;2.90;;
75035;SDS011;64247;51.540;5.854;2023-06-26T07:54:25;7.88;;;3.20;;
75035;SDS011;64247;51.540;5.854;2023-06-26T07:56:26;5.15;;;2.85;;
75035;SDS011;64247;51.540;5.854;2023-06-26T07:58:27;5.47;;;2.85;;
75035;SDS011;64247;51.540;5.854;2023-06-26T08:00:28;6.57;;;2.42;;
75035;SDS011;64247;51.540;5.854;2023-06-26T08:02:29;4.93;;;2.28;;
75035;SDS011;64247;51.540;5.854;2023-06-26T08:04:30;4.80;;;1.98;;
75035;SDS011;64247;51.540;5.854;2023-06-26T08:06:32;3.92;;;2.70;;
75035;SDS011;64247;51.540;5.854;2023-06-26T08:08:33;2.88;;;2.10;;
75035;SDS011;64247;51.540;5.854;2023-06-26T08:10:34;3.60;;;1.92;;
75035;SDS011;64247;51.540;5.854;2023-06-26T08:12:35;7.07;;;3.88;;
75035;SDS011;64247;51.540;5.854;2023-06-26T08:14:37;4.38;;;2.80;;
75035;SDS011;64247;51.540;5.854;2023-06-26T08:16:38;4.63;;;3.08;;
75035;SDS011;64247;51.540;5.854;2023-06-26T08:18:40;4.18;;;2.85;;
75035;SDS011;64247;51.540;5.854;2023-06-26T08:20:41;3.22;;;2.10;;
75035;SDS011;64247;51.540;5.854;2023-06-26T08:22:42;4.38;;;2.30;;
75035;SDS011;64247;51.540;5.854;2023-06-26T08:24:43;3.78;;;2.40;;
75035;SDS011;64247;51.540;5.854;2023-06-26T08:26:44;4.93;;;3.00;;
75035;SDS011;64247;51.540;5.854;2023-06-26T08:28:47;3.33;;;2.17;;
75035;SDS011;64247;51.540;5.854;2023-06-26T08:30:47;8.45;;;3.40;;
75035;SDS011;64247;51.540;5.854;2023-06-26T08:32:48;7.40;;;3.05;;
75035;SDS011;64247;51.540;5.854;2023-06-26T08:34:51;5.68;;;2.92;;
75035;SDS011;64247;51.540;5.854;2023-06-26T08:36:52;7.55;;;3.58;;
75035;SDS011;64247;51.540;5.854;2023-06-26T08:38:54;4.82;;;3.50;;
75035;SDS011;64247;51.540;5.854;2023-06-26T08:40:55;4.50;;;3.35;;
75035;SDS011;64247;51.540;5.854;2023-06-26T08:42:56;4.63;;;3.40;;
75035;SDS011;64247;51.540;5.854;2023-06-26T08:44:57;4.38;;;3.80;;
75035;SDS011;64247;51.540;5.854;2023-06-26T08:46:59;5.05;;;3.22;;
75035;SDS011;64247;51.540;5.854;2023-06-26T08:49:01;4.25;;;3.35;;
75035;SDS011;64247;51.540;5.854;2023-06-26T08:51:28;4.50;;;3.00;;
75035;SDS011;64247;51.540;5.854;2023-06-26T08:58:02;2.53;;;2.20;;
75035;SDS011;64247;51.540;5.854;2023-06-26T09:00:04;6.63;;;2.00;;
75035;SDS011;64247;51.540;5.854;2023-06-26T09:02:08;5.57;;;2.00;;
75035;SDS011;64247;51.540;5.854;2023-06-26T09:04:11;2.53;;;1.75;;
75035;SDS011;64247;51.540;5.854;2023-06-26T09:06:12;2.72;;;1.50;;
75035;SDS011;64247;51.540;5.854;2023-06-26T09:08:13;3.25;;;1.33;;
75035;SDS011;64247;51.540;5.854;2023-06-26T09:10:14;1.27;;;1.08;;
75035;SDS011;64247;51.540;5.854;2023-06-26T09:12:15;1.10;;;0.80;;
75035;SDS011;64247;51.540;5.854;2023-06-26T09:14:17;1.30;;;0.80;;
75035;SDS011;64247;51.540;5.854;2023-06-26T09:16:18;2.85;;;1.40;;
75035;SDS011;64247;51.540;5.854;2023-06-26T09:18:26;1.95;;;1.20;;
75035;SDS011;64247;51.540;5.854;2023-06-26T09:20:28;1.10;;;1.00;;
75035;SDS011;64247;51.540;5.854;2023-06-26T09:22:33;4.53;;;1.20;;
75035;SDS011;64247;51.540;5.854;2023-06-26T09:24:40;2.65;;;1.20;;
75035;SDS011;64247;51.540;5.854;2023-06-26T09:26:42;3.00;;;1.25;;
75035;SDS011;64247;51.540;5.854;2023-06-26T09:28:43;1.55;;;1.17;;
75035;SDS011;64247;51.540;5.854;2023-06-26T09:30:44;1.75;;;1.50;;
75035;SDS011;64247;51.540;5.854;2023-06-26T09:32:48;1.25;;;1.15;;
75035;SDS011;64247;51.540;5.854;2023-06-26T09:34:52;4.18;;;1.38;;
75035;SDS011;64247;51.540;5.854;2023-06-26T09:36:56;1.67;;;1.05;;
75035;SDS011;64247;51.540;5.854;2023-06-26T09:38:56;4.35;;;1.02;;
75035;SDS011;64247;51.540;5.854;2023-06-26T09:40:57;3.30;;;0.90;;
75035;SDS011;64247;51.540;5.854;2023-06-26T09:43:02;1.30;;;0.73;;
75035;SDS011;64247;51.540;5.854;2023-06-26T09:45:06;0.65;;;0.60;;
75035;SDS011;64247;51.540;5.854;2023-06-26T09:47:08;2.10;;;0.80;;
75035;SDS011;64247;51.540;5.854;2023-06-26T09:49:09;2.25;;;1.20;;
75035;SDS011;64247;51.540;5.854;2023-06-26T09:51:11;0.95;;;0.80;;
75035;SDS011;64247;51.540;5.854;2023-06-26T09:53:13;1.13;;;0.98;;
75035;SDS011;64247;51.540;5.854;2023-06-26T09:55:14;1.38;;;0.85;;
75035;SDS011;64247;51.540;5.854;2023-06-26T09:57:16;1.17;;;1.05;;
75035;SDS011;64247;51.540;5.854;2023-06-26T09:59:19;2.15;;;1.00;;
75035;SDS011;64247;51.540;5.854;2023-06-26T10:01:19;2.08;;;1.17;;
75035;SDS011;64247;51.540;5.854;2023-06-26T10:03:20;1.67;;;0.75;;
75035;SDS011;64247;51.540;5.854;2023-06-26T10:05:21;1.85;;;1.25;;
75035;SDS011;64247;51.540;5.854;2023-06-26T10:07:22;2.15;;;0.73;;
75035;SDS011;64247;51.540;5.854;2023-06-26T10:09:24;1.10;;;0.77;;
75035;SDS011;64247;51.540;5.854;2023-06-26T10:11:28;1.15;;;1.02;;
75035;SDS011;64247;51.540;5.854;2023-06-26T10:14:14;1.10;;;0.50;;
75035;SDS011;64247;51.540;5.854;2023-06-26T10:16:18;0.85;;;0.50;;
75035;SDS011;64247;51.540;5.854;2023-06-26T10:18:27;1.05;;;0.60;;
75035;SDS011;64247;51.540;5.854;2023-06-26T10:20:32;0.50;;;0.50;;
75035;SDS011;64247;51.540;5.854;2023-06-26T10:22:37;1.02;;;0.70;;
75035;SDS011;64247;51.540;5.854;2023-06-26T10:24:45;1.77;;;0.82;;
75035;SDS011;64247;51.540;5.854;2023-06-26T10:26:49;2.08;;;0.57;;
75035;SDS011;64247;51.540;5.854;2023-06-26T10:28:57;1.83;;;0.93;;
75035;SDS011;64247;51.540;5.854;2023-06-26T10:30:58;2.60;;;0.75;;
75035;SDS011;64247;51.540;5.854;2023-06-26T10:33:04;2.97;;;0.77;;
75035;SDS011;64247;51.540;5.854;2023-06-26T10:35:07;2.72;;;1.45;;
75035;SDS011;64247;51.540;5.854;2023-06-26T10:37:11;2.95;;;0.70;;
75035;SDS011;64247;51.540;5.854;2023-06-26T10:39:13;1.85;;;1.15;;
75035;SDS011;64247;51.540;5.854;2023-06-26T10:41:14;2.17;;;0.90;;
75035;SDS011;64247;51.540;5.854;2023-06-26T10:43:16;0.82;;;0.68;;
75035;SDS011;64247;51.540;5.854;2023-06-26T10:45:21;2.00;;;0.93;;
75035;SDS011;64247;51.540;5.854;2023-06-26T10:47:48;1.95;;;0.57;;
75035;SDS011;64247;51.540;5.854;2023-06-26T10:49:53;4.28;;;1.20;;
75035;SDS011;64247;51.540;5.854;2023-06-26T10:51:54;1.38;;;0.63;;
75035;SDS011;64247;51.540;5.854;2023-06-26T10:54:00;5.28;;;1.20;;
75035;SDS011;64247;51.540;5.854;2023-06-26T10:56:02;4.07;;;0.98;;
75035;SDS011;64247;51.540;5.854;2023-06-26T10:58:26;1.83;;;0.75;;
75035;SDS011;64247;51.540;5.854;2023-06-26T11:00:53;1.75;;;0.60;;
75035;SDS011;64247;51.540;5.854;2023-06-26T11:06:36;1.75;;;0.50;;
75035;SDS011;64247;51.540;5.854;2023-06-26T11:08:48;1.70;;;0.77;;
75035;SDS011;64247;51.540;5.854;2023-06-26T11:10:54;2.85;;;0.70;;
75035;SDS011;64247;51.540;5.854;2023-06-26T11:13:01;0.70;;;0.57;;
75035;SDS011;64247;51.540;5.854;2023-06-26T11:15:09;2.75;;;0.60;;
75035;SDS011;64247;51.540;5.854;2023-06-26T11:17:31;0.77;;;0.47;;
75035;SDS011;64247;51.540;5.854;2023-06-26T11:19:32;1.40;;;0.60;;
75035;SDS011;64247;51.540;5.854;2023-06-26T11:21:33;2.28;;;0.73;;
75035;SDS011;64247;51.540;5.854;2023-06-26T11:23:35;1.90;;;0.70;;
75035;SDS011;64247;51.540;5.854;2023-06-26T11:25:37;0.77;;;0.70;;
75035;SDS011;64247;51.540;5.854;2023-06-26T11:30:01;2.70;;;0.90;;
75035;SDS011;64247;51.540;5.854;2023-06-26T11:32:03;0.75;;;0.60;;
75035;SDS011;64247;51.540;5.854;2023-06-26T11:34:06;2.08;;;0.88;;
75035;SDS011;64247;51.540;5.854;2023-06-26T11:36:11;0.98;;;0.85;;
75035;SDS011;64247;51.540;5.854;2023-06-26T11:38:13;1.83;;;0.50;;
75035;SDS011;64247;51.540;5.854;2023-06-26T11:40:20;0.57;;;0.52;;
75035;SDS011;64247;51.540;5.854;2023-06-26T11:42:21;0.95;;;0.55;;
75035;SDS011;64247;51.540;5.854;2023-06-26T11:44:25;0.98;;;0.70;;
75035;SDS011;64247;51.540;5.854;2023-06-26T11:46:30;0.82;;;0.75;;
75035;SDS011;64247;51.540;5.854;2023-06-26T11:48:34;0.80;;;0.60;;
75035;SDS011;64247;51.540;5.854;2023-06-26T11:50:37;0.90;;;0.70;;
75035;SDS011;64247;51.540;5.854;2023-06-26T11:52:40;0.95;;;0.50;;
75035;SDS011;64247;51.540;5.854;2023-06-26T11:54:42;1.58;;;0.68;;
75035;SDS011;64247;51.540;5.854;2023-06-26T11:56:51;1.63;;;0.85;;
75035;SDS011;64247;51.540;5.854;2023-06-26T12:01:21;2.78;;;0.95;;
75035;SDS011;64247;51.540;5.854;2023-06-26T12:03:22;9.38;;;0.80;;
75035;SDS011;64247;51.540;5.854;2023-06-26T12:05:24;1.15;;;0.70;;
75035;SDS011;64247;51.540;5.854;2023-06-26T12:07:25;0.82;;;0.77;;
75035;SDS011;64247;51.540;5.854;2023-06-26T12:09:26;0.63;;;0.60;;
75035;SDS011;64247;51.540;5.854;2023-06-26T12:11:27;1.52;;;0.50;;
75035;SDS011;64247;51.540;5.854;2023-06-26T12:13:30;1.48;;;1.15;;
75035;SDS011;64247;51.540;5.854;2023-06-26T12:15:31;3.92;;;0.57;;
75035;SDS011;64247;51.540;5.854;2023-06-26T12:17:32;0.88;;;0.80;;
75035;SDS011;64247;51.540;5.854;2023-06-26T12:19:33;1.20;;;0.77;;
75035;SDS011;64247;51.540;5.854;2023-06-26T12:23:59;1.25;;;0.82;;
75035;SDS011;64247;51.540;5.854;2023-06-26T12:28:21;1.70;;;0.50;;
75035;SDS011;64247;51.540;5.854;2023-06-26T12:30:22;5.20;;;1.02;;
75035;SDS011;64247;51.540;5.854;2023-06-26T12:32:24;0.70;;;0.70;;
75035;SDS011;64247;51.540;5.854;2023-06-26T12:34:30;0.68;;;0.50;;
75035;SDS011;64247;51.540;5.854;2023-06-26T12:38:54;1.35;;;0.52;;
75035;SDS011;64247;51.540;5.854;2023-06-26T12:40:56;0.80;;;0.60;;
75035;SDS011;64247;51.540;5.854;2023-06-26T12:42:57;1.90;;;0.88;;
75035;SDS011;64247;51.540;5.854;2023-06-26T12:44:58;3.17;;;0.80;;
75035;SDS011;64247;51.540;5.854;2023-06-26T12:47:00;2.15;;;0.75;;
75035;SDS011;64247;51.540;5.854;2023-06-26T12:49:03;1.33;;;0.80;;